Terminal Aerodrome Forecast
Issued by NWS

Home | Current Version | Previous Version | Text Only | Print | Product List | Glossary On
Versions: 1 2 3 4 5 6 7 8 9 10 11 12 13 14 15 16 17 18 19 20 21 22 23 24 25 26 27 28 29 30 31 32
000
FTUS45 KLKN 230520
TAFWMC
TAF
KWMC 230520Z 2306/2406 05005KT P6SM -SN SCT010 OVC040
      TEMPO 2306/2310 2SM -SN BR BKN006
     FM231000 25006KT 3SM -SN OVC020
     FM231500 22009KT P6SM -SHSN OVC040
     FM240000 26010KT P6SM BKN060 OVC100=

USA.gov is the U.S. government's official web portal to all federal, state and local government web resources and services.